DAAGLDPL

Guest
Details From DAAG - Alger Houari Boumediene
To LDPL - Pula
Flight Number -
Tags Generated
Created
Modified
Stats Distance 693 nm / 1,284 km
Max Altitude 0 ft / 0 m
Waypoints 4
Social Downloads 0
Likes 0
Share VATSIM

Download

Looking for another format? Having issues loading an existing format? Contact us
Advertisement - Login to hide

Notes

Generated

Route

DAAG GILET PUL LDPL

ID Type Via Altitude Latitude Longitude Leg Dist Tot Dist Heading (true) Name
O DAAG APT - 0 ft / 0 m 36.69213˚ 3.17083˚ - 0 nm - -
GILET FIX - 0 ft / 0 m 42.37528˚ 10.21917˚ 471 nm 471 nm 42° / 46° -
PUL VOR - 0 ft / 0 m 44.89237˚ 13.91813˚ 220 nm 692 nm 46° / 48° PULA VOR-DME
O LDPL APT - 0 ft / 0 m 44.89313˚ 13.90359˚ 0 nm 693 nm 274° / 274° -

Altitude Profile

Advertisement - Login to hide

Weather


0- 5 10 15 20 25 30 35+ Temperature / ° C

Clouds and Precipitation
Forecast for 2017-12-12 06:00 UTC. Updated 2 hours ago

Ground ~20,000 ft ~40,000 ft Winds

DAAG

Details ICAO DAAG (ALG)
Name Alger Houari Boumediene
Region Algeria
Timezone Africa/Algiers (UTC+1.0)
Stats Elevation 82 ft / 25 m (AMSL)
Location 36.697521° 3.213079°
Runways 2
Magnetic Variation 1.057° E

METAR

DAAG 120700Z 22004KT 190V250 9999 FEW026 FEW030CB SCT040 BKN083 11/09 Q1012

Decode

TAF

TAF DAAG 120500Z 1206/1306 20010KT 9999 FEW026 BKN083 TEMPO 1206/1214 FEW026CB PROB40 TEMPO 1206/1212 5000 -RA FEW023CB

Decode

Departure Runways

ID Width Length Bearing (true) Bearing (mag) Surface Threshold Offset Overrun Length
05 197 ft / 60 m 11,459 ft / 3,493 m 52.87° 51.81° Asphalt 0 ft / 0 m 0 ft / 0 m
09 148 ft / 45 m 11,442 ft / 3,487 m 91.75° 90.69° Asphalt 0 ft / 0 m 1,017 ft / 310 m
23 197 ft / 60 m 11,459 ft / 3,493 m 232.89° 231.83° Asphalt 0 ft / 0 m 0 ft / 0 m
27 148 ft / 45 m 11,442 ft / 3,487 m 271.78° 270.72° Asphalt 0 ft / 0 m 0 ft / 0 m

LDPL

Details ICAO LDPL (PUY)
Name Pula
Region Croatia
Timezone Europe/Zagreb (UTC+1.0)
Stats Elevation 274 ft / 84 m (AMSL)
Location 44.893531° 13.922156°
Runways 1
Magnetic Variation 3.473° E

METAR

LDPL 120700Z 24015KT 9999 -RA BKN055 14/11 Q1008 NOSIG

Decode

TAF

TAF LDPL 120525Z 1206/1306 18012KT 9999 SCT030 TX15/1206Z TN08/1223Z TEMPO 1206/1221 RA BKN012 OVC030 BECMG 1208/1210 25010KT PROB30 TEMPO 1208/1213 4000 SHRA SCT010 SCT025TCU OVC030 BECMG 1213/1215 16006KT PROB40 TEMPO 1218/1306 BKN007

Decode

Destination Runways

ID Width Length Bearing (true) Bearing (mag) Surface Threshold Offset Overrun Length
09 148 ft / 45 m 9,601 ft / 2,926 m 88.24° 84.77° Asphalt 250 ft / 76 m 0 ft / 0 m
27 148 ft / 45 m 9,601 ft / 2,926 m 268.27° 264.80° Asphalt 250 ft / 76 m 0 ft / 0 m

Approach Navaids

Runway Type Ident Frequency Range Bearing (true) Bearing (mag) Slope Elevation
27 Localiser IPU 111.50 MHz 25 nm / 46 km 268.28° 264.81° - 157 ft / 48 m (AMSL)
27 Glidescope IPU 111.50 MHz 25 nm / 46 km 268.28° 264.81° 3.20° 243 ft / 74 m (AMSL)